createdAt,value
2019-02-20T05:01:42.502Z,29.37
2019-02-20T05:04:04.964Z,33.70
2019-02-20T05:06:27.405Z,33.87
2019-02-20T05:08:49.934Z,35.57
2019-02-20T05:11:12.457Z,33.87
2019-02-20T05:13:35.007Z,34.77
2019-02-20T06:01:49.979Z,33.13
2019-02-20T06:04:12.534Z,30.90
2019-02-20T06:06:35.916Z,31.23
2019-02-20T06:08:58.462Z,28.90
2019-02-20T06:11:20.891Z,33.73
2019-02-20T06:13:44.626Z,36.70
2019-02-20T07:01:43.251Z,64.70
2019-02-20T07:04:05.927Z,64.77
2019-02-20T07:07:00.739Z,59.07
2019-02-20T07:09:59.850Z,56.57
2019-02-20T07:12:49.618Z,52.30
2019-02-20T08:02:16.462Z,40.23
2019-02-20T08:04:51.193Z,40.70
2019-02-20T08:07:26.312Z,41.47
2019-02-20T08:10:01.670Z,33.23
2019-02-20T08:12:37.798Z,40.53
2019-02-20T09:02:35.291Z,33.20
2019-02-20T09:05:10.299Z,32.57
2019-02-20T09:07:45.503Z,34.43
2019-02-20T09:10:20.893Z,34.43
2019-02-20T09:12:56.072Z,34.20
2019-02-20T10:00:40.388Z,27.03
2019-02-20T10:03:02.847Z,29.83
2019-02-20T10:05:25.375Z,27.70
2019-02-20T10:07:47.861Z,28.40
2019-02-20T10:10:10.421Z,25.20
2019-02-20T10:12:32.864Z,22.90
2019-02-20T10:14:55.524Z,19.40
2019-02-20T10:52:11.567Z,20.83
2019-02-20T10:54:46.635Z,20.63
2019-02-20T10:57:21.667Z,18.80
2019-02-20T10:59:57.015Z,18.20
2019-02-20T11:02:32.113Z,17.13
2019-02-20T11:05:07.166Z,17.40
2019-02-20T11:07:42.284Z,16.00
2019-02-20T11:10:17.191Z,14.73
2019-02-20T11:12:52.439Z,11.90
2019-02-20T12:02:47.690Z,7.07
2019-02-20T12:05:22.961Z,6.20
2019-02-20T12:07:58.169Z,12.40
2019-02-20T12:10:33.215Z,10.63
2019-02-20T12:13:08.507Z,7.60
2019-02-20T13:00:43.770Z,9.50
2019-02-20T13:03:19.063Z,9.97
2019-02-20T13:05:54.065Z,6.97
2019-02-20T13:08:29.307Z,7.43
2019-02-20T13:11:04.327Z,7.07
2019-02-20T13:13:39.487Z,8.10
2019-02-20T13:19:05.447Z,6.07
2019-02-20T13:21:40.916Z,7.03
2019-02-20T13:24:16.330Z,9.93
2019-02-20T13:26:53.166Z,7.30
2019-02-20T13:29:28.431Z,6.67
2019-02-20T13:32:03.626Z,7.00
2019-02-20T13:34:39.043Z,8.60
2019-02-20T13:37:14.111Z,7.37
2019-02-20T14:03:26.411Z,9.80
2019-02-20T14:12:03.063Z,13.03
2019-02-20T14:14:25.730Z,7.50
2019-02-20T14:49:14.875Z,9.97
2019-02-20T14:51:37.426Z,9.30
2019-02-20T14:53:59.995Z,9.67
2019-02-20T14:56:22.797Z,9.03
2019-02-20T14:58:57.635Z,11.13
2019-02-20T15:01:32.976Z,11.07
2019-02-20T15:04:08.175Z,10.03
2019-02-20T15:06:43.354Z,9.20
2019-02-20T15:09:18.603Z,8.40
2019-02-20T15:11:53.814Z,9.87
2019-02-20T15:14:29.342Z,8.67
2019-02-20T16:00:16.103Z,12.07
2019-02-20T16:02:51.616Z,12.57
2019-02-20T16:05:26.694Z,14.87
2019-02-20T16:08:01.635Z,13.80
2019-02-20T16:10:36.779Z,11.40
2019-02-20T16:13:11.859Z,13.07
2019-02-20T16:49:00.707Z,16.40
2019-02-20T16:51:23.245Z,17.20
2019-02-20T16:53:45.818Z,16.97
2019-02-20T16:56:27.811Z,18.83
2019-02-20T16:59:05.103Z,17.80
2019-02-20T17:01:42.710Z,16.80
2019-02-20T17:04:17.745Z,21.63
2019-02-20T17:06:53.988Z,19.67
2019-02-20T17:09:29.175Z,19.30
2019-02-20T17:12:04.047Z,20.10
2019-02-20T17:14:39.143Z,20.50
2019-02-20T17:17:15.545Z,21.17
2019-02-20T17:19:50.424Z,25.47
2019-02-20T17:22:25.637Z,22.53
2019-02-20T17:25:01.981Z,21.00
2019-02-20T17:27:38.617Z,22.37
2019-02-20T17:30:13.638Z,23.87
2019-02-20T17:35:32.632Z,20.70
2019-02-20T17:38:09.000Z,18.40
2019-02-20T17:40:44.267Z,18.37
2019-02-20T17:43:19.620Z,29.33
2019-02-20T17:45:54.791Z,24.20
2019-02-20T17:48:31.499Z,27.10
2019-02-20T17:51:06.675Z,23.83
2019-02-20T17:53:45.701Z,24.70
2019-02-20T17:56:21.334Z,27.83
2019-02-20T17:58:57.509Z,29.93
2019-02-20T18:01:34.357Z,24.90
2019-02-20T18:04:10.039Z,26.93
2019-02-20T18:06:44.925Z,27.80
2019-02-20T18:09:20.337Z,31.23
2019-02-20T18:11:55.653Z,32.63
2019-02-20T18:20:08.440Z,31.07
2019-02-20T18:22:43.844Z,27.17
2019-02-20T18:25:20.035Z,27.93
2019-02-20T18:27:59.562Z,25.20
2019-02-20T18:51:22.301Z,24.80
2019-02-20T18:53:57.915Z,27.00
2019-02-20T18:56:34.189Z,27.67
2019-02-20T19:04:57.973Z,37.17
2019-02-20T19:07:34.129Z,46.43
2019-02-20T19:10:18.864Z,46.10
2019-02-20T19:12:54.340Z,40.47
2019-02-20T20:00:13.835Z,37.80
2019-02-20T20:02:49.749Z,23.90
2019-02-20T20:05:28.872Z,30.47
2019-02-20T20:08:04.535Z,30.33
2019-02-20T20:10:40.897Z,31.13
2019-02-20T20:13:16.858Z,37.37
2019-02-20T21:00:42.455Z,32.90
2019-02-20T21:03:26.918Z,39.63
2019-02-20T21:06:02.705Z,47.00
2019-02-20T21:08:37.187Z,37.30
2019-02-20T21:11:12.121Z,41.97
2019-02-20T21:13:47.142Z,39.77
